createdAt,value
2023-03-10T00:00:34.322Z,4.14
2023-03-10T00:03:22.891Z,4.10
2023-03-10T00:05:52.363Z,4.09
2023-03-10T00:08:22.095Z,4.06
2023-03-10T00:10:51.130Z,3.99
2023-03-10T00:13:21.481Z,3.91
2023-03-10T00:15:50.793Z,3.85
2023-03-10T00:18:21.129Z,3.80
2023-03-10T00:20:55.246Z,3.76
2023-03-10T00:23:25.841Z,3.72
2023-03-10T00:26:01.502Z,3.66
2023-03-10T00:28:33.937Z,3.62
2023-03-10T00:31:07.400Z,3.59
2023-03-10T00:33:40.700Z,3.58
2023-03-10T00:36:19.576Z,3.57
2023-03-10T00:38:54.905Z,3.58
2023-03-10T00:41:27.644Z,3.57
2023-03-10T00:43:58.998Z,3.58
2023-03-10T00:46:30.412Z,3.59
2023-03-10T00:49:00.208Z,3.62
2023-03-10T00:51:30.055Z,3.63
2023-03-10T00:54:02.963Z,3.65
2023-03-10T00:56:32.186Z,3.65
2023-03-10T00:59:02.068Z,3.66
2023-03-10T01:01:37.128Z,3.69
2023-03-10T01:04:11.583Z,3.68
2023-03-10T01:06:42.716Z,3.66
2023-03-10T01:09:14.118Z,3.59
2023-03-10T01:11:45.000Z,3.53
2023-03-10T01:14:16.610Z,3.46
2023-03-10T01:16:46.306Z,3.34
2023-03-10T01:19:18.568Z,3.26
2023-03-10T01:21:47.705Z,3.18
2023-03-10T01:24:17.777Z,3.10
2023-03-10T01:26:51.594Z,3.06
2023-03-10T01:29:22.436Z,3.00
2023-03-10T01:31:53.097Z,2.95
2023-03-10T01:34:23.819Z,2.89
2023-03-10T01:36:54.165Z,2.84
2023-03-10T01:39:24.787Z,2.76
2023-03-10T01:41:54.784Z,2.71
2023-03-10T01:44:23.952Z,2.71
2023-03-10T01:46:59.609Z,2.71
2023-03-10T01:49:40.444Z,2.72
2023-03-10T01:52:17.001Z,2.72
2023-03-10T01:54:55.281Z,2.73
2023-03-10T01:57:33.572Z,2.76
2023-03-10T02:00:12.269Z,2.79
2023-03-10T02:02:57.042Z,2.82
2023-03-10T02:05:27.727Z,2.83
2023-03-10T02:08:01.677Z,2.82
2023-03-10T02:10:30.862Z,2.86
2023-03-10T02:13:00.572Z,2.87
2023-03-10T02:15:30.802Z,2.87
2023-03-10T02:18:05.280Z,2.90
2023-03-10T02:20:53.033Z,2.91
2023-03-10T02:24:00.336Z,2.91
2023-03-10T02:26:58.455Z,2.85
2023-03-10T02:29:45.537Z,2.82
2023-03-10T02:32:35.661Z,2.78
2023-03-10T02:35:06.481Z,2.74
2023-03-10T02:37:38.356Z,2.69
2023-03-10T02:40:34.164Z,2.64
2023-03-10T02:43:19.778Z,2.59
2023-03-10T02:45:56.112Z,2.51
2023-03-10T02:48:34.576Z,2.45
2023-03-10T02:51:13.498Z,2.38
2023-03-10T02:53:43.758Z,2.34
2023-03-10T02:56:13.663Z,2.31
2023-03-10T02:58:44.692Z,2.27
2023-03-10T03:01:15.402Z,2.22
2023-03-10T03:03:44.848Z,2.15
2023-03-10T03:06:14.826Z,2.10
2023-03-10T03:08:45.201Z,2.08
2023-03-10T03:11:17.566Z,2.08
2023-03-10T03:13:46.635Z,2.09
2023-03-10T03:16:17.533Z,2.08
2023-03-10T03:18:48.730Z,2.07
2023-03-10T03:21:21.816Z,2.09
2023-03-10T03:23:51.889Z,2.11
2023-03-10T03:26:24.881Z,2.14
2023-03-10T03:28:58.572Z,2.17
2023-03-10T03:31:32.431Z,2.22
2023-03-10T03:34:13.292Z,2.26
2023-03-10T03:36:44.272Z,2.30
2023-03-10T03:39:17.903Z,2.33
2023-03-10T03:41:53.920Z,2.34
2023-03-10T03:44:25.491Z,2.33
2023-03-10T03:46:56.167Z,2.29
2023-03-10T03:49:26.603Z,2.28
2023-03-10T03:51:56.940Z,2.27
2023-03-10T03:54:27.147Z,2.24
2023-03-10T03:56:56.380Z,2.18
2023-03-10T03:59:25.689Z,2.11
2023-03-10T04:01:55.224Z,2.08
2023-03-10T04:04:25.887Z,2.05
2023-03-10T04:06:57.580Z,2.00
2023-03-10T04:09:26.733Z,1.97
2023-03-10T04:12:00.039Z,1.91
2023-03-10T04:14:29.759Z,1.86
2023-03-10T04:16:59.751Z,1.81
2023-03-10T04:19:29.440Z,1.77
2023-03-10T04:22:05.171Z,1.71
2023-03-10T04:24:35.151Z,1.65
2023-03-10T04:27:12.267Z,1.61
2023-03-10T04:29:43.010Z,1.57
2023-03-10T04:32:13.483Z,1.53
2023-03-10T04:34:44.673Z,1.50
2023-03-10T04:37:15.992Z,1.49
2023-03-10T04:39:45.462Z,1.49
2023-03-10T04:42:18.297Z,1.50
2023-03-10T04:44:49.143Z,1.52
2023-03-10T04:47:19.282Z,1.55
2023-03-10T04:49:49.303Z,1.57
2023-03-10T04:52:19.595Z,1.53
2023-03-10T04:54:51.023Z,1.49
2023-03-10T04:57:25.154Z,1.46
2023-03-10T05:00:34.864Z,1.48
2023-03-10T05:03:07.127Z,1.52
2023-03-10T05:05:37.731Z,1.56
2023-03-10T05:08:08.912Z,1.60
2023-03-10T05:10:48.202Z,1.64
2023-03-10T05:13:17.940Z,1.69
2023-03-10T05:15:51.077Z,1.76
2023-03-10T05:18:22.051Z,1.80
2023-03-10T05:20:59.102Z,1.84
2023-03-10T05:23:31.230Z,1.85
2023-03-10T05:26:13.284Z,1.83
2023-03-10T05:28:43.259Z,1.81
2023-03-10T05:31:16.489Z,1.82
2023-03-10T05:33:48.517Z,1.79
2023-03-10T05:36:17.912Z,1.79
2023-03-10T05:38:48.173Z,1.82
2023-03-10T05:41:19.109Z,1.85
2023-03-10T05:43:50.646Z,1.88
2023-03-10T05:46:24.394Z,1.86
2023-03-10T05:48:57.745Z,1.86
2023-03-10T05:51:32.923Z,1.88
2023-03-10T05:54:09.615Z,1.92
2023-03-10T05:56:39.103Z,2.00
2023-03-10T05:59:08.985Z,2.08
2023-03-10T06:01:40.489Z,2.20
2023-03-10T06:04:09.877Z,2.34
2023-03-10T06:06:42.405Z,2.42
2023-03-10T06:09:14.933Z,2.53
2023-03-10T06:11:50.187Z,2.67
2023-03-10T06:14:19.605Z,2.82
2023-03-10T06:16:53.197Z,2.99
2023-03-10T06:19:33.038Z,3.13
2023-03-10T06:22:03.482Z,3.28
2023-03-10T06:24:40.412Z,3.44
2023-03-10T06:27:13.132Z,3.61
2023-03-10T06:29:44.426Z,3.79
2023-03-10T06:32:14.063Z,3.95
2023-03-10T06:34:43.510Z,4.09
2023-03-10T06:37:14.682Z,4.22
2023-03-10T06:39:46.076Z,4.33
2023-03-10T06:42:15.126Z,4.46
2023-03-10T06:44:46.085Z,4.60
2023-03-10T06:47:16.639Z,4.71
2023-03-10T06:49:45.930Z,4.83
2023-03-10T06:52:15.263Z,4.94
2023-03-10T06:54:45.267Z,5.05
2023-03-10T06:57:14.589Z,5.16
2023-03-10T06:59:44.233Z,5.27
2023-03-10T07:02:22.339Z,5.37
2023-03-10T07:05:03.719Z,5.50
2023-03-10T07:07:52.897Z,5.64
2023-03-10T07:10:23.180Z,5.78
2023-03-10T07:13:03.606Z,5.92
2023-03-10T07:15:32.934Z,6.06
2023-03-10T07:18:28.282Z,6.19
2023-03-10T07:20:59.321Z,6.34
2023-03-10T07:23:28.867Z,6.49
2023-03-10T07:26:04.623Z,6.67
2023-03-10T07:28:39.423Z,6.85
2023-03-10T07:31:11.322Z,7.04
2023-03-10T07:33:41.497Z,7.24
2023-03-10T07:36:15.586Z,7.43
2023-03-10T07:38:45.253Z,7.62
2023-03-10T07:41:17.591Z,7.80
2023-03-10T07:43:47.968Z,7.97
2023-03-10T07:46:18.366Z,8.15
2023-03-10T07:48:49.885Z,8.31
2023-03-10T07:51:20.526Z,8.46
2023-03-10T07:53:49.678Z,8.60
2023-03-10T07:56:18.776Z,8.74
2023-03-10T07:58:52.055Z,8.89
2023-03-10T08:01:23.088Z,9.01
2023-03-10T08:03:55.340Z,9.12
2023-03-10T08:06:28.360Z,9.24
2023-03-10T08:08:58.548Z,9.39
2023-03-10T08:11:29.938Z,9.53
2023-03-10T08:13:59.102Z,9.68
2023-03-10T08:16:29.323Z,9.84
2023-03-10T08:18:58.536Z,10.02
2023-03-10T08:21:27.731Z,10.14
2023-03-10T08:23:57.530Z,10.30
2023-03-10T08:26:27.564Z,10.47
2023-03-10T08:28:58.241Z,10.66
2023-03-10T08:31:28.466Z,10.88
2023-03-10T08:33:59.449Z,11.12
2023-03-10T08:36:31.195Z,11.31
2023-03-10T08:39:02.849Z,11.48
2023-03-10T08:41:36.404Z,11.61
2023-03-10T08:44:07.831Z,11.81
2023-03-10T08:46:46.786Z,12.04
2023-03-10T08:49:21.202Z,12.26
2023-03-10T08:51:50.461Z,12.44
2023-03-10T08:54:22.205Z,12.61
2023-03-10T08:56:51.677Z,12.78
2023-03-10T08:59:23.273Z,12.92
2023-03-10T09:01:53.448Z,13.04
2023-03-10T09:04:23.147Z,13.17
2023-03-10T09:06:52.216Z,13.33
2023-03-10T09:09:21.949Z,13.55
2023-03-10T09:11:52.596Z,13.73
2023-03-10T09:14:24.280Z,13.91
2023-03-10T09:17:00.370Z,14.07
2023-03-10T09:19:29.597Z,14.24
2023-03-10T09:21:59.915Z,14.41
2023-03-10T09:24:29.206Z,14.59
2023-03-10T09:26:58.474Z,14.80
2023-03-10T09:29:42.157Z,15.04
2023-03-10T09:32:13.806Z,15.33
2023-03-10T09:34:43.201Z,15.58
2023-03-10T09:37:12.295Z,15.79
2023-03-10T09:39:42.953Z,15.96
2023-03-10T09:42:40.425Z,16.10
2023-03-10T09:45:27.106Z,16.22
2023-03-10T09:48:03.808Z,16.29
2023-03-10T09:50:40.252Z,16.33
2023-03-10T09:53:26.209Z,16.36
2023-03-10T09:56:03.502Z,16.42
2023-03-10T09:58:38.504Z,16.48
2023-03-10T10:01:25.898Z,16.47
2023-03-10T10:04:08.556Z,16.60
2023-03-10T10:06:40.472Z,16.87
2023-03-10T10:09:25.656Z,17.17
2023-03-10T10:11:56.675Z,17.46
2023-03-10T10:14:32.067Z,17.75
2023-03-10T10:17:35.477Z,17.91
2023-03-10T10:20:32.329Z,17.88
2023-03-10T10:23:02.055Z,17.95
2023-03-10T10:25:33.112Z,18.08
2023-03-10T10:28:05.411Z,18.28
2023-03-10T10:30:42.380Z,18.54
2023-03-10T10:33:15.065Z,18.70
2023-03-10T10:36:02.926Z,18.78
2023-03-10T10:38:33.374Z,18.48
2023-03-10T10:41:18.172Z,18.00
2023-03-10T10:43:48.886Z,17.57
2023-03-10T10:46:30.326Z,17.42
2023-03-10T10:49:23.944Z,17.24
2023-03-10T10:52:06.004Z,17.15
2023-03-10T10:54:44.315Z,17.03
2023-03-10T10:57:22.677Z,16.98
2023-03-10T10:59:52.390Z,16.96
2023-03-10T11:02:25.298Z,16.93
2023-03-10T11:05:18.715Z,16.92
2023-03-10T11:07:54.130Z,16.99
2023-03-10T11:10:33.378Z,17.03
2023-03-10T11:13:22.423Z,17.05
2023-03-10T11:15:57.985Z,17.04
2023-03-10T11:18:59.055Z,17.00
2023-03-10T11:21:32.047Z,16.92
2023-03-10T11:24:20.745Z,16.88
2023-03-10T11:27:02.140Z,16.92
2023-03-10T11:30:03.062Z,16.92
2023-03-10T11:32:42.904Z,16.86
2023-03-10T11:35:30.537Z,16.82
2023-03-10T11:38:25.296Z,16.74
2023-03-10T11:41:01.272Z,16.79
2023-03-10T11:44:04.234Z,16.99
2023-03-10T11:46:51.160Z,17.29
2023-03-10T11:49:28.400Z,17.74
2023-03-10T11:52:09.357Z,17.99
2023-03-10T11:55:06.422Z,18.15
2023-03-10T11:57:44.721Z,18.10
2023-03-10T12:00:33.400Z,17.95
2023-03-10T12:03:21.218Z,17.71
2023-03-10T12:06:00.535Z,17.47
2023-03-10T12:08:35.677Z,17.16
2023-03-10T12:11:17.907Z,16.89
2023-03-10T12:14:00.827Z,16.67
2023-03-10T12:16:37.434Z,16.54
2023-03-10T12:19:08.715Z,16.50
2023-03-10T12:21:38.810Z,16.49
2023-03-10T12:24:47.794Z,16.40
2023-03-10T12:27:18.196Z,16.34
2023-03-10T12:29:48.106Z,16.27
2023-03-10T12:32:43.780Z,16.05
2023-03-10T12:35:47.974Z,15.88
2023-03-10T12:38:43.067Z,15.85
2023-03-10T12:41:44.933Z,15.84
2023-03-10T12:44:36.619Z,15.74
2023-03-10T12:47:34.492Z,15.72
2023-03-10T12:50:42.682Z,15.69
2023-03-10T12:53:14.671Z,15.68
2023-03-10T12:56:18.329Z,15.66
2023-03-10T12:59:15.765Z,15.66
2023-03-10T13:01:55.914Z,15.62
2023-03-10T13:04:33.323Z,15.60
2023-03-10T13:07:17.182Z,15.62
2023-03-10T13:09:50.558Z,15.66
2023-03-10T13:12:38.071Z,15.72
2023-03-10T13:15:24.623Z,15.72
2023-03-10T13:18:21.168Z,15.75
2023-03-10T13:20:51.097Z,15.75
2023-03-10T13:23:28.402Z,15.75
2023-03-10T13:26:09.654Z,15.77
2023-03-10T13:28:55.236Z,15.76
2023-03-10T13:31:31.764Z,15.74
2023-03-10T13:34:28.752Z,15.70
2023-03-10T13:37:27.197Z,15.64
2023-03-10T13:40:11.848Z,15.58
2023-03-10T13:42:45.325Z,15.54
2023-03-10T13:45:23.997Z,15.50
2023-03-10T13:47:55.538Z,15.42
2023-03-10T13:50:25.217Z,15.42
2023-03-10T13:53:00.260Z,15.39
2023-03-10T13:55:42.427Z,15.29
2023-03-10T13:58:14.231Z,15.23
2023-03-10T14:00:49.409Z,15.21
2023-03-10T14:03:21.164Z,15.20
2023-03-10T14:05:50.812Z,15.22
2023-03-10T14:08:31.343Z,15.20
2023-03-10T14:11:22.516Z,15.19
2023-03-10T14:13:52.564Z,15.16
2023-03-10T14:16:58.204Z,15.17
2023-03-10T14:19:43.718Z,15.22
2023-03-10T14:22:26.206Z,15.27
2023-03-10T14:24:59.353Z,15.32
2023-03-10T14:27:29.434Z,15.38
2023-03-10T14:30:02.848Z,15.41
2023-03-10T14:32:54.766Z,15.44
2023-03-10T14:35:25.899Z,15.46
2023-03-10T14:37:58.494Z,15.45
2023-03-10T14:40:28.121Z,15.43
2023-03-10T14:43:01.663Z,15.39
2023-03-10T14:45:34.931Z,15.38
2023-03-10T14:48:18.350Z,15.33
2023-03-10T14:50:51.018Z,15.28
2023-03-10T14:53:58.612Z,15.24
2023-03-10T14:56:28.900Z,15.18
2023-03-10T14:59:11.034Z,15.13
2023-03-10T15:01:46.286Z,15.07
2023-03-10T15:04:23.120Z,15.06
2023-03-10T15:06:59.770Z,15.00
2023-03-10T15:09:32.482Z,14.99
2023-03-10T15:12:02.058Z,14.93
2023-03-10T15:14:35.877Z,14.87
2023-03-10T15:17:13.344Z,14.83
2023-03-10T15:19:44.045Z,14.78
2023-03-10T15:22:13.199Z,14.74
2023-03-10T15:24:54.875Z,14.68
2023-03-10T15:27:34.748Z,14.63
2023-03-10T15:30:05.026Z,14.60
2023-03-10T15:32:34.574Z,14.55
2023-03-10T15:35:04.892Z,14.52
2023-03-10T15:37:34.344Z,14.47
2023-03-10T15:40:05.551Z,14.43
2023-03-10T15:42:34.814Z,14.37
2023-03-10T15:45:16.535Z,14.31
2023-03-10T15:47:50.448Z,14.24
2023-03-10T15:50:28.173Z,14.17
2023-03-10T15:53:01.140Z,14.11
2023-03-10T15:55:38.785Z,14.05
2023-03-10T15:58:16.912Z,13.98
2023-03-10T16:00:46.784Z,13.93
2023-03-10T16:03:18.411Z,13.85
2023-03-10T16:05:50.509Z,13.78
2023-03-10T16:08:20.450Z,13.73
2023-03-10T16:10:55.992Z,13.67
2023-03-10T16:13:29.173Z,13.59
2023-03-10T16:16:24.195Z,13.53
2023-03-10T16:18:58.322Z,13.46
2023-03-10T16:21:31.358Z,13.37
2023-03-10T16:24:00.950Z,13.28
2023-03-10T16:26:30.854Z,13.22
2023-03-10T16:29:01.359Z,13.13
2023-03-10T16:31:31.700Z,13.04
2023-03-10T16:34:01.045Z,12.97
2023-03-10T16:36:30.957Z,12.89
2023-03-10T16:39:10.300Z,12.82
2023-03-10T16:41:55.812Z,12.69
2023-03-10T16:44:28.551Z,12.54
2023-03-10T16:46:58.160Z,12.44
2023-03-10T16:49:45.691Z,12.35
2023-03-10T16:52:18.560Z,12.23
2023-03-10T16:54:48.948Z,12.10
2023-03-10T16:57:18.481Z,12.03
2023-03-10T17:00:13.064Z,11.95
2023-03-10T17:02:45.531Z,11.87
2023-03-10T17:05:19.942Z,11.80
2023-03-10T17:08:01.187Z,11.68
2023-03-10T17:10:45.814Z,11.58
2023-03-10T17:13:39.659Z,11.50
2023-03-10T17:16:56.683Z,11.41
2023-03-10T17:23:09.169Z,11.28
2023-03-10T17:25:52.506Z,11.21
2023-03-10T17:28:28.832Z,11.15
2023-03-10T17:30:57.901Z,11.10
2023-03-10T17:33:27.043Z,11.07
2023-03-10T17:35:56.320Z,11.05
2023-03-10T17:38:32.045Z,11.04
2023-03-10T17:41:10.775Z,11.02
2023-03-10T17:43:40.613Z,11.00
2023-03-10T17:46:25.719Z,10.98
2023-03-10T17:48:58.634Z,10.97
2023-03-10T17:51:32.622Z,10.97
2023-03-10T17:54:02.579Z,10.97
2023-03-10T17:56:39.054Z,10.97
2023-03-10T17:59:11.324Z,10.95
2023-03-10T18:01:43.537Z,10.92
2023-03-10T18:04:33.591Z,10.89
2023-03-10T18:07:44.017Z,10.84
2023-03-10T18:10:19.950Z,10.78
2023-03-10T18:12:51.226Z,10.75
2023-03-10T18:15:36.126Z,10.72
2023-03-10T18:18:20.716Z,10.69
2023-03-10T18:21:03.655Z,10.64
2023-03-10T18:23:45.697Z,10.59
2023-03-10T18:26:30.205Z,10.57
2023-03-10T18:29:03.050Z,10.53
2023-03-10T18:31:36.747Z,10.50
2023-03-10T18:34:06.352Z,10.46
2023-03-10T18:36:35.776Z,10.44
2023-03-10T18:39:08.230Z,10.42
2023-03-10T18:41:37.664Z,10.41
2023-03-10T18:44:07.264Z,10.39
2023-03-10T18:46:37.652Z,10.37
2023-03-10T18:49:12.496Z,10.35
2023-03-10T18:51:43.986Z,10.31
2023-03-10T18:54:31.226Z,10.25
2023-03-10T18:57:25.445Z,10.20
2023-03-10T19:00:10.357Z,10.15
2023-03-10T19:02:44.209Z,10.13
2023-03-10T19:05:40.493Z,10.11
2023-03-10T19:08:40.490Z,10.11
2023-03-10T19:11:16.331Z,10.11
2023-03-10T19:13:52.446Z,10.11
2023-03-10T19:16:25.474Z,10.10
2023-03-10T19:18:57.784Z,10.11
2023-03-10T19:21:27.938Z,10.12
2023-03-10T19:24:23.418Z,10.14
2023-03-10T19:26:59.454Z,10.17
2023-03-10T19:29:29.903Z,10.17
2023-03-10T19:32:06.751Z,10.19
2023-03-10T19:34:37.646Z,10.19
2023-03-10T19:37:06.810Z,10.18
2023-03-10T19:39:52.559Z,10.17
2023-03-10T19:42:33.797Z,10.14
2023-03-10T19:45:39.958Z,10.12
2023-03-10T19:48:22.926Z,10.07
2023-03-10T19:50:58.945Z,10.00
2023-03-10T19:53:30.844Z,9.96
2023-03-10T19:56:04.173Z,9.91
2023-03-10T19:58:46.962Z,9.87
2023-03-10T20:01:56.032Z,9.81
2023-03-10T20:04:35.516Z,9.76
2023-03-10T20:07:18.523Z,9.73
2023-03-10T20:10:06.996Z,9.67
2023-03-10T20:12:56.713Z,9.61
2023-03-10T20:15:26.962Z,9.53
2023-03-10T20:18:06.194Z,9.46
2023-03-10T20:20:35.348Z,9.41
2023-03-10T20:23:04.881Z,9.38
2023-03-10T20:25:33.882Z,9.33
2023-03-10T20:28:02.972Z,9.32
2023-03-10T20:30:33.285Z,9.30
2023-03-10T20:33:03.501Z,9.31
2023-03-10T20:35:33.943Z,9.34
2023-03-10T20:38:04.473Z,9.35
2023-03-10T20:40:33.556Z,9.36
2023-03-10T20:43:02.725Z,9.40
2023-03-10T20:45:33.241Z,9.45
2023-03-10T20:48:02.866Z,9.44
2023-03-10T20:50:55.394Z,9.44
2023-03-10T20:53:40.190Z,9.43
2023-03-10T20:56:11.948Z,9.42
2023-03-10T20:58:41.187Z,9.41
2023-03-10T21:01:21.887Z,9.41
2023-03-10T21:04:00.138Z,9.40
2023-03-10T21:06:29.750Z,9.37
2023-03-10T21:09:02.066Z,9.38
2023-03-10T21:11:31.380Z,9.36
2023-03-10T21:14:01.059Z,9.35
2023-03-10T21:16:30.398Z,9.32
2023-03-10T21:18:59.653Z,9.31
2023-03-10T21:21:32.153Z,9.28
2023-03-10T21:24:03.994Z,9.25
2023-03-10T21:26:33.815Z,9.23
2023-03-10T21:29:04.225Z,9.20
2023-03-10T21:31:33.416Z,9.19
2023-03-10T21:34:03.628Z,9.18
2023-03-10T21:36:33.283Z,9.17
2023-03-10T21:39:09.700Z,9.19
2023-03-10T21:41:40.338Z,9.19
2023-03-10T21:44:11.489Z,9.19
2023-03-10T21:46:41.459Z,9.22
2023-03-10T21:49:11.819Z,9.26
2023-03-10T21:51:42.388Z,9.28
2023-03-10T21:54:11.654Z,9.30
2023-03-10T21:56:42.051Z,9.32
2023-03-10T21:59:11.207Z,9.32
2023-03-10T22:01:41.331Z,9.33
2023-03-10T22:04:12.955Z,9.31
2023-03-10T22:06:43.012Z,9.31
2023-03-10T22:09:12.767Z,9.32
2023-03-10T22:11:42.916Z,9.33
2023-03-10T22:14:13.723Z,9.33
2023-03-10T22:16:45.106Z,9.33
2023-03-10T22:19:14.648Z,9.32
2023-03-10T22:21:46.788Z,9.27
2023-03-10T22:24:17.535Z,9.20
2023-03-10T22:26:46.579Z,9.19
2023-03-10T22:29:16.320Z,9.19
2023-03-10T22:31:45.864Z,9.22
2023-03-10T22:34:15.993Z,9.24
2023-03-10T22:36:45.544Z,9.29
2023-03-10T22:39:16.044Z,9.27
2023-03-10T22:41:46.348Z,9.29
2023-03-10T22:44:21.443Z,9.23
2023-03-10T22:46:50.538Z,9.20
2023-03-10T22:49:22.790Z,9.17
2023-03-10T22:51:53.311Z,9.19
2023-03-10T22:54:23.640Z,9.23
2023-03-10T22:56:53.380Z,9.22
2023-03-10T22:59:23.212Z,9.22
2023-03-10T23:01:52.197Z,9.24
2023-03-10T23:04:21.944Z,9.18
2023-03-10T23:06:51.852Z,9.18
2023-03-10T23:09:22.950Z,9.18
2023-03-10T23:11:55.197Z,9.18
2023-03-10T23:14:27.803Z,9.20
2023-03-10T23:16:58.251Z,9.19
2023-03-10T23:19:28.258Z,9.20
2023-03-10T23:21:57.341Z,9.19
2023-03-10T23:24:27.037Z,9.18
2023-03-10T23:26:56.745Z,9.17
2023-03-10T23:29:25.973Z,9.16
2023-03-10T23:31:55.700Z,9.15
2023-03-10T23:34:25.378Z,9.15
2023-03-10T23:36:57.775Z,9.15
2023-03-10T23:39:29.772Z,9.13
2023-03-10T23:41:59.141Z,9.11
2023-03-10T23:44:29.230Z,9.09
2023-03-10T23:46:58.350Z,9.07
2023-03-10T23:49:28.050Z,9.04
2023-03-10T23:51:58.994Z,9.02
2023-03-10T23:54:30.823Z,8.99
2023-03-10T23:57:00.215Z,8.98
2023-03-10T23:59:30.865Z,8.96
